Time;durP1;ratioP1;P1;durP2;ratioP2;P2;SDS_P1;SDS_P2;PMS_P1;PMS_P2;Temp;Humidity;BMP_temperature;BMP_pressure;BME280_temperature;BME280_humidity;BME280_pressure;Samples;Min_cycle;Max_cycle;Signal;HPM_P1;HPM_P2
2023/08/29 00:01:20;;;;;;;23.13;5.00;;;27.20;51.30;;;;;;5107383;28;20218;-74
2023/08/29 00:03:49;;;;;;;50.77;7.27;;;27.10;51.20;;;;;;5107032;28;20924;-75
2023/08/29 00:06:16;;;;;;;30.70;5.80;;;27.10;51.30;;;;;;5109540;28;20318;-75
2023/08/29 00:08:43;;;;;;;30.63;5.73;;;27.10;51.20;;;;;;5108703;28;20209;-74
2023/08/29 00:11:10;;;;;;;41.67;6.60;;;27.10;51.30;;;;;;5105971;27;20630;-73
2023/08/29 00:13:36;;;;;;;37.27;6.40;;;27.20;51.40;;;;;;5107766;28;20285;-73
2023/08/29 00:16:05;;;;;;;24.73;5.30;;;27.10;51.90;;;;;;5109404;28;20236;-73
2023/08/29 00:18:32;;;;;;;28.53;5.33;;;27.10;51.30;;;;;;5108784;28;20194;-72
2023/08/29 00:21:00;;;;;;;35.87;6.17;;;27.10;51.30;;;;;;5108799;28;20627;-73
2023/08/29 00:23:27;;;;;;;33.97;5.90;;;27.10;51.30;;;;;;5108279;28;20204;-73
2023/08/29 00:25:54;;;;;;;33.40;5.90;;;27.10;51.30;;;;;;5094324;28;20266;-72
2023/08/29 00:28:21;;;;;;;23.57;4.83;;;27.10;51.30;;;;;;5099819;27;20307;-73
2023/08/29 00:30:48;;;;;;;31.00;5.77;;;27.10;51.30;;;;;;5100488;27;20276;-73
2023/08/29 00:33:15;;;;;;;37.17;6.17;;;27.10;51.30;;;;;;5129385;27;20284;-72
2023/08/29 00:35:42;;;;;;;31.60;6.03;;;27.10;51.30;;;;;;5129825;27;20281;-73
2023/08/29 00:38:11;;;;;;;38.07;6.47;;;27.10;51.30;;;;;;5126554;27;20201;-72
2023/08/29 00:40:38;;;;;;;39.57;6.57;;;27.10;51.30;;;;;;5107580;28;20205;-72
2023/08/29 00:43:05;;;;;;;25.30;5.10;;;27.10;51.40;;;;;;5088930;28;20202;-73
2023/08/29 00:45:34;;;;;;;31.47;5.80;;;27.10;51.30;;;;;;5087948;28;20623;-72
2023/08/29 00:48:02;;;;;;;31.60;5.73;;;27.10;51.30;;;;;;5101117;28;20202;-73
2023/08/29 00:50:30;;;;;;;27.83;5.63;;;27.10;51.30;;;;;;5106707;27;20669;-74
2023/08/29 00:52:59;;;;;;;46.43;7.03;;;27.10;51.30;;;;;;5106057;28;20208;-74
2023/08/29 00:55:29;;;;;;;31.23;5.77;;;27.10;51.40;;;;;;5109019;28;20232;-72
2023/08/29 00:57:59;;;;;;;29.07;5.77;;;27.10;51.30;;;;;;5103494;28;20305;-72
2023/08/29 01:00:28;;;;;;;29.00;5.30;;;27.10;51.40;;;;;;5107637;28;20204;-72
2023/08/29 01:02:55;;;;;;;35.93;6.33;;;27.10;51.40;;;;;;5106773;28;20202;-72
2023/08/29 01:05:22;;;;;;;41.10;6.63;;;27.10;51.40;;;;;;5105683;28;20552;-73
2023/08/29 01:07:50;;;;;;;28.00;5.27;;;27.10;51.40;;;;;;5105495;28;20301;-72
2023/08/29 01:10:18;;;;;;;30.67;5.77;;;27.10;51.40;;;;;;5106984;28;20279;-72
2023/08/29 01:12:52;;;;;;;38.23;6.77;;;27.00;51.30;;;;;;5105936;28;20281;-73
2023/08/29 01:15:22;;;;;;;21.77;4.77;;;27.00;51.40;;;;;;5106804;28;20204;-72
2023/08/29 01:17:55;;;;;;;31.20;5.80;;;27.00;51.40;;;;;;5106294;28;20305;-72
2023/08/29 01:20:24;;;;;;;24.13;5.37;;;27.00;51.40;;;;;;5105878;27;20193;-73
2023/08/29 01:23:03;;;;;;;32.67;5.53;;;27.00;51.40;;;;;;5105542;28;20423;-73
2023/08/29 01:25:37;;;;;;;28.23;5.60;;;27.00;51.40;;;;;;5115150;27;20333;-73
2023/08/29 01:28:07;;;;;;;24.20;5.10;;;27.00;51.40;;;;;;5105825;28;20204;-73
2023/08/29 01:30:35;;;;;;;48.03;7.17;;;27.00;51.40;;;;;;5105733;28;20217;-73
2023/08/29 01:33:03;;;;;;;30.17;5.60;;;27.00;51.40;;;;;;5106142;28;20206;-74
2023/08/29 01:35:30;;;;;;;32.80;6.07;;;27.00;51.40;;;;;;5106460;28;20313;-74
2023/08/29 01:37:57;;;;;;;33.83;6.00;;;27.00;51.40;;;;;;5107102;28;20614;-73
2023/08/29 01:40:23;;;;;;;24.57;5.23;;;27.00;51.40;;;;;;5106561;28;20309;-74
2023/08/29 01:42:50;;;;;;;45.17;7.07;;;27.00;51.40;;;;;;5103617;28;20213;-73
2023/08/29 01:45:19;;;;;;;28.97;5.43;;;27.00;51.40;;;;;;5103523;28;20318;-73
2023/08/29 01:47:46;;;;;;;34.17;6.07;;;27.00;51.40;;;;;;5106002;28;20213;-74
2023/08/29 01:50:14;;;;;;;24.37;5.57;;;27.00;51.40;;;;;;5106831;28;20288;-75
2023/08/29 01:52:41;;;;;;;30.97;5.97;;;27.00;51.40;;;;;;5105618;28;20198;-74
2023/08/29 01:55:09;;;;;;;31.87;5.73;;;27.00;51.40;;;;;;5107273;28;20205;-73
2023/08/29 01:57:37;;;;;;;25.67;5.23;;;27.00;51.40;;;;;;5105856;28;20206;-75
2023/08/29 02:00:05;;;;;;;30.03;5.83;;;27.00;51.40;;;;;;5106225;28;20296;-73
2023/08/29 02:02:33;;;;;;;27.37;5.47;;;26.90;51.50;;;;;;5106805;28;20627;-74
2023/08/29 02:05:00;;;;;;;29.53;5.67;;;26.90;51.40;;;;;;5105849;28;20321;-72
2023/08/29 02:07:27;;;;;;;28.40;5.50;;;27.00;51.50;;;;;;5109131;27;20236;-73
2023/08/29 02:09:54;;;;;;;28.00;5.43;;;26.90;51.40;;;;;;5111479;28;20284;-74
2023/08/29 02:12:21;;;;;;;59.57;8.13;;;26.90;51.50;;;;;;5107772;28;20281;-74
2023/08/29 02:14:48;;;;;;;29.70;5.97;;;26.90;51.40;;;;;;5107750;28;20292;-74
2023/08/29 02:17:15;;;;;;;36.83;6.43;;;26.90;51.40;;;;;;5111596;28;20289;-74
2023/08/29 02:19:43;;;;;;;30.47;5.50;;;26.90;51.50;;;;;;5111609;28;20561;-73
2023/08/29 02:22:11;;;;;;;25.63;5.23;;;26.90;51.40;;;;;;5110654;28;20214;-73
2023/08/29 02:24:38;;;;;;;36.60;6.50;;;26.90;51.50;;;;;;5110532;28;20253;-73
2023/08/29 02:27:06;;;;;;;34.23;6.07;;;26.90;51.50;;;;;;5111380;28;20221;-73
2023/08/29 02:29:33;;;;;;;25.90;5.13;;;26.90;51.50;;;;;;5111267;28;20201;-73
2023/08/29 02:32:00;;;;;;;30.80;5.90;;;26.90;51.50;;;;;;5111712;28;20273;-73
2023/08/29 02:34:27;;;;;;;42.97;6.60;;;26.90;51.50;;;;;;5111089;28;20204;-73
2023/08/29 02:36:55;;;;;;;29.77;5.73;;;26.90;51.50;;;;;;5111363;28;20639;-73
2023/08/29 02:39:23;;;;;;;28.90;5.77;;;26.90;52.10;;;;;;5109846;28;20202;-73
2023/08/29 02:41:49;;;;;;;30.33;5.87;;;26.90;51.50;;;;;;5111246;28;20562;-73
2023/08/29 02:44:16;;;;;;;31.70;6.20;;;26.80;51.50;;;;;;5108816;28;20245;-72
2023/08/29 02:46:43;;;;;;;22.43;4.80;;;26.80;51.50;;;;;;5110159;28;20240;-73
2023/08/29 02:49:10;;;;;;;26.93;5.30;;;26.80;51.50;;;;;;5109464;28;20289;-73
2023/08/29 02:51:37;;;;;;;29.80;5.50;;;26.80;51.50;;;;;;5110580;28;20293;-74
2023/08/29 02:54:06;;;;;;;31.93;5.97;;;26.80;51.50;;;;;;5108214;28;20293;-74
2023/08/29 02:56:33;;;;;;;39.30;6.70;;;26.80;51.50;;;;;;5109450;28;20313;-74
2023/08/29 02:59:00;;;;;;;27.90;5.50;;;26.80;51.50;;;;;;5110275;28;20229;-74
2023/08/29 03:01:27;;;;;;;22.40;4.93;;;26.80;51.50;;;;;;5110475;28;20208;-74
2023/08/29 03:03:54;;;;;;;22.93;5.23;;;26.80;51.50;;;;;;5107966;28;20237;-74
2023/08/29 03:06:21;;;;;;;79.33;9.87;;;26.80;51.60;;;;;;5106924;28;20339;-73
2023/08/29 03:08:48;;;;;;;37.97;6.53;;;26.80;51.60;;;;;;5104616;28;20204;-73
2023/08/29 03:11:16;;;;;;;48.23;7.33;;;26.80;51.60;;;;;;5106254;28;20200;-73
2023/08/29 03:13:43;;;;;;;28.27;5.27;;;26.80;51.60;;;;;;5107791;28;20206;-73
2023/08/29 03:16:13;;;;;;;30.47;5.87;;;26.80;51.60;;;;;;5110419;28;20582;-73
2023/08/29 03:18:40;;;;;;;23.80;5.47;;;26.80;51.60;;;;;;5108457;28;20574;-73
2023/08/29 03:21:07;;;;;;;42.37;6.67;;;26.70;51.50;;;;;;5108634;28;20642;-73
2023/08/29 03:23:35;;;;;;;32.40;5.97;;;26.70;51.60;;;;;;5104320;28;20222;-73
2023/08/29 03:26:09;;;;;;;39.33;6.57;;;26.70;51.60;;;;;;5108374;28;20202;-72
2023/08/29 03:28:38;;;;;;;27.43;5.57;;;26.70;51.70;;;;;;5109952;28;20540;-73
2023/08/29 03:31:10;;;;;;;42.20;6.70;;;26.70;52.20;;;;;;5097768;28;20198;-73
2023/08/29 03:33:37;;;;;;;26.90;5.73;;;26.70;51.70;;;;;;5107134;28;20198;-73
2023/08/29 03:36:05;;;;;;;24.40;5.37;;;26.70;51.70;;;;;;5102117;28;20203;-73
2023/08/29 03:38:34;;;;;;;35.90;6.17;;;26.70;51.70;;;;;;5098461;28;20222;-73
2023/08/29 03:41:01;;;;;;;43.87;6.90;;;26.70;51.70;;;;;;5104107;28;20664;-72
2023/08/29 03:43:28;;;;;;;42.73;6.63;;;26.70;51.70;;;;;;5105937;28;20244;-73
2023/08/29 03:45:58;;;;;;;23.87;5.27;;;26.70;51.70;;;;;;5099511;28;20977;-78
2023/08/29 03:48:25;;;;;;;35.13;6.10;;;26.70;51.80;;;;;;5105162;28;20201;-78
2023/08/29 03:50:53;;;;;;;31.10;6.17;;;26.70;51.70;;;;;;5107053;28;20564;-78
2023/08/29 03:53:20;;;;;;;35.03;6.73;;;26.70;51.70;;;;;;5105640;27;20198;-78
2023/08/29 03:55:47;;;;;;;27.87;5.90;;;26.70;51.80;;;;;;5109246;28;20226;-78
2023/08/29 03:58:14;;;;;;;28.47;5.90;;;26.60;51.70;;;;;;5109349;28;20301;-78
2023/08/29 04:00:42;;;;;;;24.63;5.57;;;26.60;51.70;;;;;;5109487;28;20206;-78
2023/08/29 04:03:10;;;;;;;30.97;6.00;;;26.70;51.70;;;;;;5101057;28;20190;-78
2023/08/29 04:05:37;;;;;;;36.77;6.23;;;26.60;51.70;;;;;;5108988;28;20234;-78
2023/08/29 04:08:06;;;;;;;30.50;6.00;;;26.70;51.80;;;;;;5106080;28;20226;-77
2023/08/29 04:10:38;;;;;;;32.63;6.17;;;26.70;51.80;;;;;;5108997;28;20578;-78
2023/08/29 04:13:06;;;;;;;31.17;6.03;;;26.60;51.70;;;;;;5108578;28;20209;-78
2023/08/29 04:15:34;;;;;;;28.47;6.00;;;26.60;51.70;;;;;;5109960;27;20206;-78
2023/08/29 04:18:01;;;;;;;35.90;6.17;;;26.60;51.90;;;;;;5108392;28;20210;-78
2023/08/29 04:20:30;;;;;;;26.07;5.43;;;26.60;51.70;;;;;;5103040;28;20561;-78
2023/08/29 04:22:58;;;;;;;30.27;6.07;;;26.60;51.70;;;;;;5109280;28;20296;-78
2023/08/29 04:25:26;;;;;;;31.27;6.00;;;26.60;51.70;;;;;;5109365;28;20203;-78
2023/08/29 04:27:53;;;;;;;26.77;5.47;;;26.60;52.30;;;;;;5108927;28;20226;-78
2023/08/29 04:30:20;;;;;;;44.73;7.07;;;26.60;51.70;;;;;;5109451;28;20286;-78
2023/08/29 04:32:48;;;;;;;35.30;6.47;;;26.50;51.60;;;;;;5108633;27;20194;-77
2023/08/29 04:35:15;;;;;;;36.50;6.37;;;26.50;51.60;;;;;;5109833;27;20193;-78
2023/08/29 04:37:46;;;;;;;31.13;6.13;;;26.50;51.60;;;;;;5108844;28;20658;-78
2023/08/29 04:40:13;;;;;;;31.77;6.20;;;26.50;51.70;;;;;;5109556;28;20206;-78
2023/08/29 04:42:40;;;;;;;54.73;7.97;;;26.50;51.60;;;;;;5105833;28;20190;-77
2023/08/29 04:45:08;;;;;;;36.33;6.47;;;26.50;52.20;;;;;;5108667;27;20209;-78
2023/08/29 04:47:36;;;;;;;35.30;6.20;;;26.50;51.60;;;;;;5100517;27;20310;-83
2023/08/29 04:50:03;;;;;;;31.73;6.17;;;26.50;51.60;;;;;;5092459;28;20198;-83
2023/08/29 04:52:30;;;;;;;30.57;5.63;;;26.50;51.60;;;;;;5106567;28;20289;-83
2023/08/29 04:54:59;;;;;;;29.43;5.87;;;26.40;51.60;;;;;;5107924;28;20198;-83
2023/08/29 04:57:26;;;;;;;38.00;6.50;;;26.40;52.20;;;;;;5105423;28;20218;-83
2023/08/29 04:59:53;;;;;;;70.87;9.53;;;26.40;51.60;;;;;;5106746;28;20187;-82
2023/08/29 05:02:20;;;;;;;75.27;10.17;;;26.40;51.60;;;;;;5101093;28;20204;-82
2023/08/29 05:04:47;;;;;;;30.73;6.03;;;26.40;51.60;;;;;;5107228;28;20194;-83
2023/08/29 05:07:14;;;;;;;32.07;6.13;;;26.40;51.60;;;;;;5108230;28;20982;-81
2023/08/29 05:09:41;;;;;;;44.27;7.10;;;26.40;51.60;;;;;;5106970;28;20209;-83
2023/08/29 05:12:11;;;;;;;32.40;5.90;;;26.40;51.60;;;;;;5107232;28;20285;-83
2023/08/29 05:14:39;;;;;;;32.73;6.07;;;26.40;51.60;;;;;;5105700;28;20221;-84
2023/08/29 05:17:06;;;;;;;51.37;7.97;;;26.40;51.60;;;;;;5087638;28;20201;-82
2023/08/29 05:19:32;;;;;;;25.97;5.47;;;26.40;51.60;;;;;;5104711;28;20305;-83
2023/08/29 05:21:59;;;;;;;34.33;6.23;;;26.40;51.60;;;;;;5104496;28;20210;-83
2023/08/29 05:24:27;;;;;;;32.50;5.83;;;26.30;51.60;;;;;;5105648;28;20326;-84
2023/08/29 05:26:54;;;;;;;34.67;6.33;;;26.30;51.50;;;;;;5108052;28;20686;-83
2023/08/29 05:29:22;;;;;;;29.93;6.00;;;26.30;51.50;;;;;;5107012;28;20289;-83
2023/08/29 05:31:49;;;;;;;41.43;6.97;;;26.30;51.50;;;;;;5104726;28;20198;-81
2023/08/29 05:34:16;;;;;;;26.83;5.83;;;26.30;51.50;;;;;;5095636;28;20208;-84
2023/08/29 05:36:43;;;;;;;27.63;5.60;;;26.30;51.50;;;;;;5099035;28;20194;-83
2023/08/29 05:39:10;;;;;;;39.43;6.80;;;26.30;51.60;;;;;;5101983;28;20718;-84
2023/08/29 05:41:37;;;;;;;27.30;5.93;;;26.20;51.50;;;;;;5096608;28;20288;-84
2023/08/29 05:44:04;;;;;;;30.57;5.83;;;26.20;51.50;;;;;;5104001;28;20245;-82
2023/08/29 05:46:32;;;;;;;29.47;6.40;;;26.20;51.50;;;;;;5107578;28;20198;-84
2023/08/29 05:48:59;;;;;;;34.17;6.13;;;26.20;52.10;;;;;;5104448;28;20301;-83
2023/08/29 05:51:26;;;;;;;25.40;5.57;;;26.20;51.50;;;;;;5105719;28;20721;-84
2023/08/29 05:53:54;;;;;;;35.37;6.43;;;26.20;51.50;;;;;;5104150;28;20539;-84
2023/08/29 05:56:21;;;;;;;22.77;5.30;;;26.20;51.50;;;;;;5102741;28;20604;-83
2023/08/29 05:58:48;;;;;;;28.73;5.67;;;26.20;51.50;;;;;;5106791;28;20292;-83
2023/08/29 06:01:15;;;;;;;45.27;7.20;;;26.20;51.50;;;;;;5107148;28;20200;-86
2023/08/29 06:03:43;;;;;;;26.03;5.77;;;26.20;51.50;;;;;;5105104;28;20313;-82
2023/08/29 06:06:10;;;;;;;48.57;7.37;;;26.20;51.50;;;;;;5104367;28;20285;-85
2023/08/29 06:08:40;;;;;;;40.70;6.87;;;26.10;52.00;;;;;;5103258;28;20313;-84
2023/08/29 06:11:07;;;;;;;29.17;5.80;;;26.10;51.50;;;;;;5106329;28;20206;-83
2023/08/29 06:13:34;;;;;;;37.30;6.90;;;26.10;51.60;;;;;;5100910;28;20515;-83
2023/08/29 06:16:01;;;;;;;29.07;5.93;;;26.10;51.60;;;;;;5087643;28;20659;-84
2023/08/29 06:18:28;;;;;;;23.00;5.80;;;26.10;51.70;;;;;;5089443;28;20210;-95
2023/08/29 06:20:56;;;;;;;27.13;6.33;;;26.10;51.80;;;;;;5108641;28;20203;-92
2023/08/29 06:23:23;;;;;;;25.53;6.07;;;26.10;51.90;;;;;;5108927;28;20216;-94
2023/08/29 06:25:50;;;;;;;28.60;6.67;;;26.10;51.90;;;;;;5093889;28;20230;-93
2023/08/29 06:28:17;;;;;;;28.60;6.50;;;26.10;51.90;;;;;;5091591;28;20310;-92
2023/08/29 06:30:44;;;;;;;20.10;5.57;;;26.10;51.90;;;;;;5109192;28;20256;-92
2023/08/29 06:33:11;;;;;;;57.47;8.87;;;26.10;52.00;;;;;;5105201;28;20202;-91
2023/08/29 06:35:39;;;;;;;37.70;7.47;;;26.10;52.00;;;;;;5108566;28;20304;-79
2023/08/29 06:38:07;;;;;;;33.27;7.10;;;26.20;52.10;;;;;;5117665;27;20279;-73
2023/08/29 06:40:35;;;;;;;44.47;7.83;;;26.10;52.00;;;;;;5111102;28;20200;-75
2023/08/29 06:43:02;;;;;;;27.73;6.00;;;26.20;52.10;;;;;;5107192;28;20399;-75
2023/08/29 06:45:29;;;;;;;35.83;6.77;;;26.20;52.10;;;;;;5106683;28;20293;-73
2023/08/29 06:47:56;;;;;;;23.80;5.77;;;26.20;52.10;;;;;;5107707;28;20222;-71
2023/08/29 06:50:23;;;;;;;31.47;6.23;;;26.20;52.10;;;;;;5107346;28;20197;-70
2023/08/29 06:52:50;;;;;;;34.30;6.30;;;26.20;52.10;;;;;;5114824;27;20281;-74
2023/08/29 06:55:18;;;;;;;40.77;6.97;;;26.20;52.10;;;;;;5105219;28;20228;-78
2023/08/29 06:57:45;;;;;;;25.73;5.70;;;26.20;52.20;;;;;;5105178;28;20208;-77
2023/08/29 07:00:13;;;;;;;26.10;6.00;;;26.20;52.20;;;;;;5109157;28;20289;-79
2023/08/29 07:02:40;;;;;;;33.63;6.87;;;26.20;52.30;;;;;;5108304;28;20206;-79
2023/08/29 07:05:07;;;;;;;29.73;6.53;;;26.30;52.30;;;;;;5108461;28;20208;-75
2023/08/29 07:07:35;;;;;;;47.47;7.93;;;26.30;52.40;;;;;;5107623;28;20693;-72
2023/08/29 07:10:04;;;;;;;45.30;7.27;;;26.30;52.40;;;;;;5102307;28;20543;-76
2023/08/29 07:12:32;;;;;;;35.67;6.53;;;26.30;52.30;;;;;;5107647;28;20217;-68
2023/08/29 07:15:00;;;;;;;29.73;6.07;;;26.30;52.30;;;;;;5098957;28;20208;-75
2023/08/29 07:17:27;;;;;;;32.23;6.57;;;26.30;52.30;;;;;;5110644;28;20669;-74
2023/08/29 07:19:54;;;;;;;23.77;5.47;;;26.30;52.30;;;;;;5110872;28;20274;-75
2023/08/29 07:22:21;;;;;;;32.80;6.63;;;26.30;52.90;;;;;;5110706;28;20269;-69
2023/08/29 07:24:48;;;;;;;31.73;6.47;;;26.40;52.40;;;;;;5106904;28;20236;-69
2023/08/29 07:27:15;;;;;;;33.10;6.43;;;26.40;52.40;;;;;;5110438;28;20273;-69
2023/08/29 07:29:44;;;;;;;40.67;7.00;;;26.40;52.40;;;;;;5093747;28;20285;-70
2023/08/29 07:32:10;;;;;;;47.70;7.47;;;26.40;52.40;;;;;;5097705;28;20210;-70
2023/08/29 07:34:39;;;;;;;39.97;6.80;;;26.40;52.40;;;;;;5108109;28;20281;-73
2023/08/29 07:37:06;;;;;;;32.07;6.20;;;26.50;52.50;;;;;;5105521;28;20654;-73
2023/08/29 07:39:34;;;;;;;53.00;7.90;;;26.50;52.50;;;;;;5107814;28;20654;-73
2023/08/29 07:42:01;;;;;;;50.00;7.70;;;26.50;52.50;;;;;;5109880;28;20291;-73
2023/08/29 07:44:29;;;;;;;32.13;6.33;;;26.50;52.50;;;;;;5107879;28;20216;-72
2023/08/29 07:46:57;;;;;;;45.87;7.13;;;26.50;52.50;;;;;;5108120;28;20222;-73
2023/08/29 07:49:24;;;;;;;29.97;5.97;;;26.50;52.50;;;;;;5109041;28;20275;-73
2023/08/29 07:51:52;;;;;;;31.30;6.10;;;26.50;53.10;;;;;;5110179;28;20200;-73
2023/08/29 07:54:19;;;;;;;30.83;6.33;;;26.60;52.40;;;;;;5114729;27;20198;-73
2023/08/29 07:56:46;;;;;;;34.47;6.30;;;26.60;52.40;;;;;;5109980;27;20356;-73
2023/08/29 07:59:13;;;;;;;46.53;7.53;;;26.60;52.50;;;;;;5108983;28;20198;-74
2023/08/29 08:01:40;;;;;;;25.67;5.80;;;26.60;52.40;;;;;;5109083;28;20208;-73
2023/08/29 08:04:09;;;;;;;24.50;6.37;;;26.60;52.40;;;;;;5109412;28;20458;-81
2023/08/29 08:06:36;;;;;;;27.07;7.57;;;26.60;53.00;;;;;;5110295;28;20786;-76
2023/08/29 08:09:04;;;;;;;23.20;6.87;;;26.60;52.30;;;;;;5108018;27;20235;-74
2023/08/29 08:11:31;;;;;;;36.63;8.27;;;26.60;52.30;;;;;;5103190;28;20194;-78
2023/08/29 08:13:58;;;;;;;31.40;7.67;;;26.70;52.30;;;;;;5108491;28;20245;-76
2023/08/29 08:16:25;;;;;;;26.10;7.33;;;26.70;52.30;;;;;;5109356;28;20647;-77
2023/08/29 08:18:52;;;;;;;34.23;8.40;;;26.70;52.20;;;;;;5109667;28;20308;-78
2023/08/29 08:21:22;;;;;;;37.33;8.63;;;26.70;52.20;;;;;;5108412;28;20214;-78
2023/08/29 08:23:49;;;;;;;39.70;8.90;;;26.70;52.20;;;;;;5108622;28;20216;-78
2023/08/29 08:26:16;;;;;;;34.57;8.63;;;26.60;52.10;;;;;;5109054;28;20190;-76
2023/08/29 08:28:43;;;;;;;49.70;10.33;;;26.60;52.10;;;;;;5106935;28;20214;-77
2023/08/29 08:31:11;;;;;;;38.43;8.67;;;26.60;52.10;;;;;;5107023;28;20685;-76
2023/08/29 08:33:40;;;;;;;38.30;8.50;;;26.60;52.10;;;;;;5111661;27;20197;-78
2023/08/29 08:36:07;;;;;;;26.10;8.13;;;26.60;52.10;;;;;;5109502;28;20228;-76
2023/08/29 08:38:35;;;;;;;47.67;8.67;;;26.60;52.10;;;;;;5108773;28;20198;-72
2023/08/29 08:41:04;;;;;;;50.47;10.20;;;26.60;52.10;;;;;;5106156;28;20314;-77
2023/08/29 08:43:32;;;;;;;54.37;10.50;;;26.50;52.10;;;;;;5107090;28;20305;-78
2023/08/29 08:46:02;;;;;;;53.43;10.60;;;26.50;52.10;;;;;;5107179;28;20571;-78
2023/08/29 08:48:30;;;;;;;41.00;9.70;;;26.50;52.10;;;;;;5108392;28;20214;-78
2023/08/29 08:50:58;;;;;;;36.63;8.87;;;26.50;52.10;;;;;;5105985;27;20202;-78
2023/08/29 08:53:26;;;;;;;35.00;7.23;;;26.50;52.10;;;;;;5108506;28;20189;-78
2023/08/29 08:55:55;;;;;;;32.80;7.10;;;26.50;52.10;;;;;;5107228;28;20270;-77
2023/08/29 08:58:22;;;;;;;27.07;6.50;;;26.50;52.20;;;;;;5108880;28;20193;-78
2023/08/29 09:00:49;;;;;;;38.80;7.23;;;26.50;52.20;;;;;;5106841;28;20230;-76
2023/08/29 09:03:16;;;;;;;31.97;6.43;;;26.50;52.30;;;;;;5091865;28;20198;-77
2023/08/29 09:05:43;;;;;;;25.37;5.90;;;26.50;52.30;;;;;;5106412;28;20229;-76
2023/08/29 09:08:10;;;;;;;29.57;6.60;;;26.50;53.00;;;;;;5109158;28;20313;-77
2023/08/29 09:10:40;;;;;;;53.27;8.57;;;26.50;52.40;;;;;;5106248;28;21012;-76
2023/08/29 09:13:15;;;;;;;32.87;7.17;;;26.50;52.50;;;;;;5105117;28;20202;-70
2023/08/29 09:15:42;;;;;;;28.30;6.37;;;26.50;53.20;;;;;;5107095;28;20201;-70
2023/08/29 09:18:13;;;;;;;34.83;6.63;;;26.50;52.60;;;;;;5107698;28;20288;-73
2023/08/29 09:20:44;;;;;;;35.77;6.73;;;26.60;52.70;;;;;;5100506;28;20195;-73
2023/08/29 09:23:21;;;;;;;40.80;7.17;;;26.60;52.70;;;;;;5101784;28;20206;-73
2023/08/29 09:25:54;;;;;;;30.93;5.90;;;26.60;52.70;;;;;;5105943;28;20278;-73
2023/08/29 09:28:23;;;;;;;23.07;5.93;;;26.70;52.70;;;;;;5098154;28;20232;-77
2023/08/29 09:30:50;;;;;;;29.83;6.43;;;26.70;52.70;;;;;;5105585;28;20198;-71
2023/08/29 09:33:21;;;;;;;29.00;6.20;;;26.70;52.70;;;;;;5105066;28;20259;-75
2023/08/29 09:35:49;;;;;;;24.93;5.77;;;26.80;52.70;;;;;;5107498;28;20202;-79
2023/08/29 09:38:17;;;;;;;39.83;7.07;;;26.80;52.50;;;;;;5105974;28;20266;-82
2023/08/29 09:40:48;;;;;;;29.70;5.97;;;26.80;52.30;;;;;;5105830;28;20213;-71
2023/08/29 09:43:16;;;;;;;42.80;7.60;;;26.90;52.90;;;;;;5105590;28;20210;-72
2023/08/29 09:45:50;;;;;;;32.90;6.80;;;26.90;52.20;;;;;;5102789;28;20646;-84
2023/08/29 09:48:18;;;;;;;30.37;6.73;;;27.00;52.30;;;;;;5106439;28;20217;-78
2023/08/29 09:50:46;;;;;;;34.33;6.67;;;27.00;52.30;;;;;;5102267;28;20221;-74
2023/08/29 09:53:16;;;;;;;44.20;7.17;;;27.00;52.30;;;;;;5105693;28;20515;-73
2023/08/29 09:55:45;;;;;;;27.90;6.07;;;27.00;52.30;;;;;;5104868;28;20577;-74
2023/08/29 09:58:14;;;;;;;24.80;5.87;;;27.00;52.30;;;;;;5106948;28;20297;-74
2023/08/29 10:00:42;;;;;;;33.20;6.60;;;27.00;52.30;;;;;;5105596;28;20194;-80
2023/08/29 10:03:11;;;;;;;24.30;5.33;;;27.10;52.30;;;;;;5104054;28;20655;-73
2023/08/29 10:05:40;;;;;;;21.00;5.67;;;27.10;52.40;;;;;;5107085;28;20293;-73
2023/08/29 10:08:16;;;;;;;28.03;6.33;;;27.10;52.40;;;;;;5107091;28;20570;-73
2023/08/29 10:10:43;;;;;;;26.73;6.03;;;27.20;52.50;;;;;;5089247;28;20297;-73
2023/08/29 10:13:11;;;;;;;24.23;5.77;;;27.20;52.50;;;;;;5095027;28;20194;-74
2023/08/29 10:15:41;;;;;;;28.43;6.23;;;27.30;52.60;;;;;;5108046;28;20293;-74
2023/08/29 10:18:10;;;;;;;31.87;6.07;;;27.30;53.20;;;;;;5101958;28;20214;-75
2023/08/29 10:20:39;;;;;;;20.07;5.23;;;27.30;52.60;;;;;;5087400;28;20705;-74
2023/08/29 10:23:09;;;;;;;28.03;6.03;;;27.40;52.70;;;;;;5099917;28;20281;-74
2023/08/29 10:25:38;;;;;;;23.07;5.60;;;27.40;52.70;;;;;;5098643;28;20359;-74
2023/08/29 10:28:07;;;;;;;27.90;5.43;;;27.50;52.70;;;;;;5091446;28;20206;-74
2023/08/29 10:30:34;;;;;;;30.87;6.60;;;27.60;52.70;;;;;;5091470;28;20234;-75
2023/08/29 10:33:02;;;;;;;40.80;6.97;;;27.60;52.60;;;;;;5091164;28;20203;-74
2023/08/29 10:35:34;;;;;;;32.97;6.37;;;27.70;52.40;;;;;;5092233;28;20209;-74
2023/08/29 10:38:02;;;;;;;26.67;5.63;;;27.80;52.50;;;;;;5111514;28;20198;-74
2023/08/29 10:40:35;;;;;;;30.10;6.00;;;27.90;52.50;;;;;;5111555;28;20285;-73
2023/08/29 10:43:03;;;;;;;20.73;5.23;;;27.90;52.50;;;;;;5111395;28;20217;-74
2023/08/29 10:45:44;;;;;;;64.53;9.10;;;27.90;52.50;;;;;;5109835;28;20209;-74
2023/08/29 10:48:16;;;;;;;21.20;5.33;;;28.00;52.60;;;;;;5109111;28;20201;-74
2023/08/29 10:50:47;;;;;;;41.70;7.13;;;28.10;52.70;;;;;;5109179;28;20281;-74
2023/08/29 10:53:18;;;;;;;34.50;6.67;;;28.10;52.60;;;;;;5111144;28;20205;-75
2023/08/29 10:55:59;;;;;;;26.23;5.57;;;28.20;53.30;;;;;;5107466;28;20601;-74
2023/08/29 10:58:35;;;;;;;21.50;5.27;;;28.30;52.70;;;;;;5103416;28;20190;-73
2023/08/29 11:01:04;;;;;;;71.50;9.53;;;28.40;52.80;;;;;;5107065;27;20206;-74
2023/08/29 11:03:49;;;;;;;24.27;5.37;;;28.40;52.80;;;;;;5109324;28;20194;-74
2023/08/29 11:06:19;;;;;;;35.93;6.60;;;28.60;52.90;;;;;;5106604;28;20852;-73
2023/08/29 11:08:45;;;;;;;29.27;6.07;;;28.70;53.00;;;;;;5105128;28;20657;-75
2023/08/29 11:11:17;;;;;;;33.00;6.37;;;28.80;52.60;;;;;;5100783;28;20256;-72
2023/08/29 11:14:02;;;;;;;32.87;6.47;;;28.80;52.30;;;;;;5109905;28;20994;-73
2023/08/29 11:16:30;;;;;;;51.47;8.17;;;29.00;52.10;;;;;;5105509;28;20212;-73
2023/08/29 11:19:10;;;;;;;43.63;7.03;;;29.10;52.10;;;;;;5103770;28;20206;-72
2023/08/29 11:21:39;;;;;;;44.47;6.87;;;29.20;51.70;;;;;;5107071;28;20273;-72
2023/08/29 11:24:06;;;;;;;30.13;6.00;;;29.20;51.50;;;;;;5109765;27;20289;-72
2023/08/29 11:26:35;;;;;;;27.03;5.73;;;29.20;51.40;;;;;;5109572;28;20217;-73
2023/08/29 11:29:05;;;;;;;24.93;5.57;;;29.30;51.30;;;;;;5109678;28;20249;-72
2023/08/29 11:31:32;;;;;;;26.67;5.80;;;29.30;51.20;;;;;;5107841;28;20194;-72
2023/08/29 11:33:59;;;;;;;20.40;5.10;;;29.30;51.20;;;;;;5106866;28;20290;-72
2023/08/29 11:36:32;;;;;;;19.73;4.97;;;29.40;51.10;;;;;;5109204;28;20230;-72
2023/08/29 11:39:00;;;;;;;26.63;6.17;;;29.40;51.00;;;;;;5109836;28;20205;-72
2023/08/29 11:41:29;;;;;;;20.73;4.87;;;29.40;51.00;;;;;;5109207;28;20733;-72
2023/08/29 11:43:56;;;;;;;22.27;5.63;;;29.40;50.90;;;;;;5109861;28;20299;-72
2023/08/29 11:46:23;;;;;;;29.20;5.87;;;29.40;50.70;;;;;;5107129;28;20210;-72
2023/08/29 11:48:50;;;;;;;45.57;7.73;;;29.40;50.70;;;;;;5108828;28;20234;-74
2023/08/29 11:51:17;;;;;;;25.33;5.83;;;29.30;50.50;;;;;;5108506;28;20206;-72
2023/08/29 11:53:44;;;;;;;24.03;5.17;;;29.30;50.60;;;;;;5109703;28;20218;-74
2023/08/29 11:56:12;;;;;;;48.90;7.87;;;29.30;50.60;;;;;;5109030;28;20292;-73
2023/08/29 11:58:40;;;;;;;26.63;5.80;;;29.30;51.30;;;;;;5105166;28;20660;-73
2023/08/29 12:01:08;;;;;;;29.83;6.00;;;29.30;50.80;;;;;;5109355;28;20285;-72
2023/08/29 12:03:36;;;;;;;25.20;5.50;;;29.40;50.70;;;;;;5108903;27;20924;-72
2023/08/29 12:06:05;;;;;;;23.37;5.20;;;29.40;50.70;;;;;;5110172;28;20198;-72
2023/08/29 12:08:37;;;;;;;22.40;5.40;;;29.40;50.60;;;;;;5108508;27;20279;-72
2023/08/29 12:11:06;;;;;;;28.50;5.77;;;29.40;50.60;;;;;;5109882;28;20238;-72
2023/08/29 12:13:35;;;;;;;25.30;5.33;;;29.50;50.70;;;;;;5107397;28;20206;-73
2023/08/29 12:16:02;;;;;;;22.17;5.17;;;29.50;50.70;;;;;;5109836;28;20206;-72
2023/08/29 12:18:29;;;;;;;29.73;6.00;;;29.50;50.60;;;;;;5109694;27;20197;-72
2023/08/29 12:21:14;;;;;;;21.57;5.13;;;29.50;50.40;;;;;;5107583;28;20198;-72
2023/08/29 12:23:42;;;;;;;28.63;5.77;;;29.50;50.20;;;;;;5109361;28;20212;-72
2023/08/29 12:26:09;;;;;;;22.63;5.33;;;29.60;50.30;;;;;;5109682;28;20205;-74
2023/08/29 12:28:38;;;;;;;22.30;5.40;;;29.60;50.20;;;;;;5109158;28;20277;-74
2023/08/29 12:31:06;;;;;;;27.93;5.53;;;29.60;50.10;;;;;;5109181;28;20206;-74
2023/08/29 12:33:33;;;;;;;24.43;5.63;;;29.60;50.10;;;;;;5109207;28;20289;-72
2023/08/29 12:36:01;;;;;;;27.57;5.80;;;29.60;50.10;;;;;;5109423;28;20277;-74
2023/08/29 12:38:28;;;;;;;21.80;5.63;;;29.60;50.00;;;;;;5109479;28;20212;-73
2023/08/29 12:40:55;;;;;;;30.87;6.17;;;29.70;50.10;;;;;;5109364;28;20427;-73